sensor_id;sensor_type;location;lat;lon;timestamp;pressure;altitude;pressure_sealevel;temperature;humidity
59391;BME280;53405;57.012;40.984;2023-02-19T00:02:14;99094.50;;;-7.15;84.21
59391;BME280;53405;57.012;40.984;2023-02-19T00:05:01;99102.09;;;-7.14;84.62
59391;BME280;53405;57.012;40.984;2023-02-19T00:07:49;99091.88;;;-7.14;84.23
59391;BME280;53405;57.012;40.984;2023-02-19T00:10:37;99078.41;;;-7.17;84.94
59391;BME280;53405;57.012;40.984;2023-02-19T00:13:24;99083.56;;;-7.03;84.08
59391;BME280;53405;57.012;40.984;2023-02-19T00:16:14;99094.34;;;-7.12;83.85
59391;BME280;53405;57.012;40.984;2023-02-19T00:19:05;99074.13;;;-7.17;83.96
59391;BME280;53405;57.012;40.984;2023-02-19T00:21:53;99074.38;;;-7.21;84.29
59391;BME280;53405;57.012;40.984;2023-02-19T00:24:41;99061.94;;;-7.28;85.00
59391;BME280;53405;57.012;40.984;2023-02-19T00:27:28;99068.47;;;-7.22;84.29
59391;BME280;53405;57.012;40.984;2023-02-19T00:30:16;99064.63;;;-7.15;84.48
59391;BME280;53405;57.012;40.984;2023-02-19T00:33:03;99052.81;;;-7.17;84.93
59391;BME280;53405;57.012;40.984;2023-02-19T00:35:51;99050.66;;;-7.09;84.25
59391;BME280;53405;57.012;40.984;2023-02-19T00:38:39;99037.38;;;-7.16;84.56
59391;BME280;53405;57.012;40.984;2023-02-19T00:41:28;99034.34;;;-7.22;84.30
59391;BME280;53405;57.012;40.984;2023-02-19T00:44:16;99028.41;;;-7.23;84.44
59391;BME280;53405;57.012;40.984;2023-02-19T00:47:07;99036.72;;;-7.19;84.85
59391;BME280;53405;57.012;40.984;2023-02-19T00:49:57;99044.84;;;-7.27;84.42
59391;BME280;53405;57.012;40.984;2023-02-19T00:52:45;99011.91;;;-7.48;84.88
59391;BME280;53405;57.012;40.984;2023-02-19T00:55:32;99021.97;;;-7.45;85.25
59391;BME280;53405;57.012;40.984;2023-02-19T00:58:20;99035.63;;;-7.30;85.13
59391;BME280;53405;57.012;40.984;2023-02-19T01:01:09;99027.03;;;-7.29;85.86
59391;BME280;53405;57.012;40.984;2023-02-19T01:03:56;99034.81;;;-7.16;84.80
59391;BME280;53405;57.012;40.984;2023-02-19T01:06:44;99022.31;;;-7.20;84.64
59391;BME280;53405;57.012;40.984;2023-02-19T01:09:31;99034.63;;;-7.13;84.68
59391;BME280;53405;57.012;40.984;2023-02-19T01:12:19;99020.91;;;-7.26;84.28
59391;BME280;53405;57.012;40.984;2023-02-19T01:15:07;99022.06;;;-7.32;84.37
59391;BME280;53405;57.012;40.984;2023-02-19T01:17:55;99025.38;;;-7.30;85.07
59391;BME280;53405;57.012;40.984;2023-02-19T01:20:43;99020.66;;;-7.21;84.75
59391;BME280;53405;57.012;40.984;2023-02-19T01:23:31;99007.47;;;-7.30;84.78
59391;BME280;53405;57.012;40.984;2023-02-19T01:26:21;99011.66;;;-7.29;84.91
59391;BME280;53405;57.012;40.984;2023-02-19T01:29:09;99009.28;;;-7.32;84.83
59391;BME280;53405;57.012;40.984;2023-02-19T01:31:57;99006.06;;;-7.50;84.90
59391;BME280;53405;57.012;40.984;2023-02-19T01:34:45;99011.69;;;-7.59;85.01
59391;BME280;53405;57.012;40.984;2023-02-19T01:37:32;98994.56;;;-7.73;85.58
59391;BME280;53405;57.012;40.984;2023-02-19T01:40:20;99003.38;;;-7.63;85.70
59391;BME280;53405;57.012;40.984;2023-02-19T01:43:14;99004.53;;;-7.68;85.33
59391;BME280;53405;57.012;40.984;2023-02-19T01:46:03;98986.34;;;-7.78;85.56
59391;BME280;53405;57.012;40.984;2023-02-19T01:48:51;99008.75;;;-7.67;85.44
59391;BME280;53405;57.012;40.984;2023-02-19T01:51:44;99008.84;;;-7.69;85.62
59391;BME280;53405;57.012;40.984;2023-02-19T01:54:35;98945.25;;;-8.05;85.32
59391;BME280;53405;57.012;40.984;2023-02-19T01:57:27;99001.34;;;-7.72;85.69
59391;BME280;53405;57.012;40.984;2023-02-19T02:00:16;99002.31;;;-7.74;85.57
59391;BME280;53405;57.012;40.984;2023-02-19T02:03:04;99000.69;;;-7.75;85.38
59391;BME280;53405;57.012;40.984;2023-02-19T02:08:46;98986.72;;;-7.70;85.24
59391;BME280;53405;57.012;40.984;2023-02-19T02:11:52;98981.31;;;-7.79;85.38
59391;BME280;53405;57.012;40.984;2023-02-19T02:14:44;98994.72;;;-7.76;85.16
59391;BME280;53405;57.012;40.984;2023-02-19T02:21:02;98971.47;;;-7.71;84.92
59391;BME280;53405;57.012;40.984;2023-02-19T02:27:29;98980.06;;;-7.72;85.07
59391;BME280;53405;57.012;40.984;2023-02-19T02:30:24;98976.75;;;-7.74;84.84
59391;BME280;53405;57.012;40.984;2023-02-19T02:36:37;98961.94;;;-7.84;84.63
59391;BME280;53405;57.012;40.984;2023-02-19T02:39:27;98966.63;;;-7.76;85.19
59391;BME280;53405;57.012;40.984;2023-02-19T02:42:17;98966.53;;;-7.74;85.26
59391;BME280;53405;57.012;40.984;2023-02-19T02:45:28;98958.69;;;-7.71;84.94
59391;BME280;53405;57.012;40.984;2023-02-19T02:48:45;98962.00;;;-7.69;84.59
59391;BME280;53405;57.012;40.984;2023-02-19T02:51:49;98957.41;;;-7.78;84.17
59391;BME280;53405;57.012;40.984;2023-02-19T02:54:42;98948.50;;;-7.87;84.56
59391;BME280;53405;57.012;40.984;2023-02-19T02:57:49;98963.50;;;-7.81;84.79
59391;BME280;53405;57.012;40.984;2023-02-19T03:00:38;98957.75;;;-7.85;84.39
59391;BME280;53405;57.012;40.984;2023-02-19T03:03:48;98950.81;;;-7.83;84.33
59391;BME280;53405;57.012;40.984;2023-02-19T03:06:37;98950.81;;;-7.83;84.60
59391;BME280;53405;57.012;40.984;2023-02-19T03:09:31;98947.59;;;-7.86;84.44
59391;BME280;53405;57.012;40.984;2023-02-19T03:12:29;98941.47;;;-7.84;84.55
59391;BME280;53405;57.012;40.984;2023-02-19T03:15:44;98945.22;;;-7.89;84.41
59391;BME280;53405;57.012;40.984;2023-02-19T03:18:53;98944.28;;;-7.88;84.88
59391;BME280;53405;57.012;40.984;2023-02-19T03:22:06;98952.38;;;-7.80;84.77
59391;BME280;53405;57.012;40.984;2023-02-19T03:25:04;98931.25;;;-7.84;84.65
59391;BME280;53405;57.012;40.984;2023-02-19T03:28:14;98935.47;;;-7.83;84.46
59391;BME280;53405;57.012;40.984;2023-02-19T03:31:08;98933.72;;;-7.82;84.54
59391;BME280;53405;57.012;40.984;2023-02-19T03:34:00;98928.88;;;-7.87;84.26
59391;BME280;53405;57.012;40.984;2023-02-19T03:36:56;98922.94;;;-7.87;84.51
59391;BME280;53405;57.012;40.984;2023-02-19T03:39:48;98928.88;;;-7.87;84.26
59391;BME280;53405;57.012;40.984;2023-02-19T03:43:25;98927.81;;;-7.83;84.67
59391;BME280;53405;57.012;40.984;2023-02-19T03:46:14;98925.34;;;-7.70;84.21
59391;BME280;53405;57.012;40.984;2023-02-19T03:49:12;98927.56;;;-7.64;84.23
59391;BME280;53405;57.012;40.984;2023-02-19T03:55:05;98920.06;;;-7.67;83.82
59391;BME280;53405;57.012;40.984;2023-02-19T03:57:57;98930.22;;;-7.65;83.86
59391;BME280;53405;57.012;40.984;2023-02-19T04:01:07;98917.97;;;-7.60;83.62
59391;BME280;53405;57.012;40.984;2023-02-19T04:04:06;98918.72;;;-7.58;83.67
59391;BME280;53405;57.012;40.984;2023-02-19T04:06:56;98919.53;;;-7.57;83.24
59391;BME280;53405;57.012;40.984;2023-02-19T04:09:50;98922.34;;;-7.62;82.87
59391;BME280;53405;57.012;40.984;2023-02-19T04:12:44;98917.06;;;-7.59;82.99
59391;BME280;53405;57.012;40.984;2023-02-19T04:15:37;98915.50;;;-7.62;82.78
59391;BME280;53405;57.012;40.984;2023-02-19T04:18:32;98929.69;;;-7.41;83.20
59391;BME280;53405;57.012;40.984;2023-02-19T04:21:23;98907.97;;;-7.49;82.80
59391;BME280;53405;57.012;40.984;2023-02-19T04:24:20;98917.66;;;-7.25;82.84
59391;BME280;53405;57.012;40.984;2023-02-19T04:27:09;98900.09;;;-7.46;83.09
59391;BME280;53405;57.012;40.984;2023-02-19T04:29:57;98916.19;;;-7.29;81.59
59391;BME280;53405;57.012;40.984;2023-02-19T04:32:45;98916.38;;;-7.32;82.35
59391;BME280;53405;57.012;40.984;2023-02-19T04:35:33;98909.22;;;-7.41;82.50
59391;BME280;53405;57.012;40.984;2023-02-19T04:38:20;98908.88;;;-7.35;81.56
59391;BME280;53405;57.012;40.984;2023-02-19T04:41:08;98911.06;;;-7.43;81.82
59391;BME280;53405;57.012;40.984;2023-02-19T04:43:56;98885.84;;;-7.50;82.25
59391;BME280;53405;57.012;40.984;2023-02-19T04:46:44;98912.41;;;-7.52;81.52
59391;BME280;53405;57.012;40.984;2023-02-19T04:49:31;98908.31;;;-7.55;82.36
59391;BME280;53405;57.012;40.984;2023-02-19T04:52:19;98896.34;;;-7.54;82.48
59391;BME280;53405;57.012;40.984;2023-02-19T04:55:07;98906.03;;;-7.45;82.12
59391;BME280;53405;57.012;40.984;2023-02-19T04:57:55;98912.81;;;-7.44;82.02
59391;BME280;53405;57.012;40.984;2023-02-19T05:00:42;98903.31;;;-7.42;82.37
59391;BME280;53405;57.012;40.984;2023-02-19T05:03:30;98905.41;;;-7.34;82.04
59391;BME280;53405;57.012;40.984;2023-02-19T05:06:18;98895.91;;;-7.32;81.87
59391;BME280;53405;57.012;40.984;2023-02-19T05:09:06;98908.41;;;-7.28;81.63
59391;BME280;53405;57.012;40.984;2023-02-19T05:11:53;98907.69;;;-7.30;81.87
59391;BME280;53405;57.012;40.984;2023-02-19T05:14:41;98899.34;;;-7.33;81.74
59391;BME280;53405;57.012;40.984;2023-02-19T05:17:32;98877.53;;;-7.53;82.29
59391;BME280;53405;57.012;40.984;2023-02-19T05:20:19;98892.63;;;-7.34;81.48
59391;BME280;53405;57.012;40.984;2023-02-19T05:23:09;98894.16;;;-7.46;81.38
59391;BME280;53405;57.012;40.984;2023-02-19T05:25:57;98899.72;;;-7.54;81.21
59391;BME280;53405;57.012;40.984;2023-02-19T05:28:46;98884.53;;;-7.57;82.89
59391;BME280;53405;57.012;40.984;2023-02-19T05:31:35;98888.13;;;-7.45;81.90
59391;BME280;53405;57.012;40.984;2023-02-19T05:34:22;98882.03;;;-7.42;81.66
59391;BME280;53405;57.012;40.984;2023-02-19T05:37:10;98876.59;;;-7.52;82.57
59391;BME280;53405;57.012;40.984;2023-02-19T05:39:58;98883.66;;;-7.41;82.06
59391;BME280;53405;57.012;40.984;2023-02-19T05:42:45;98879.16;;;-7.38;81.52
59391;BME280;53405;57.012;40.984;2023-02-19T05:45:34;98876.91;;;-7.42;81.14
59391;BME280;53405;57.012;40.984;2023-02-19T05:48:22;98882.56;;;-7.37;81.46
59391;BME280;53405;57.012;40.984;2023-02-19T05:51:12;98861.25;;;-7.52;80.85
59391;BME280;53405;57.012;40.984;2023-02-19T05:54:00;98870.13;;;-7.58;82.08
59391;BME280;53405;57.012;40.984;2023-02-19T05:56:48;98874.97;;;-7.53;81.25
59391;BME280;53405;57.012;40.984;2023-02-19T05:59:36;98868.94;;;-7.52;81.99
59391;BME280;53405;57.012;40.984;2023-02-19T06:02:23;98869.50;;;-7.47;82.80
59391;BME280;53405;57.012;40.984;2023-02-19T06:05:11;98869.78;;;-7.37;82.06
59391;BME280;53405;57.012;40.984;2023-02-19T06:08:00;98861.25;;;-7.38;81.17
59391;BME280;53405;57.012;40.984;2023-02-19T06:10:47;98859.91;;;-7.58;81.24
59391;BME280;53405;57.012;40.984;2023-02-19T06:13:35;98804.00;;;-7.93;81.23
59391;BME280;53405;57.012;40.984;2023-02-19T06:16:22;98851.66;;;-7.63;81.59
59391;BME280;53405;57.012;40.984;2023-02-19T06:19:10;98862.66;;;-7.47;82.12
59391;BME280;53405;57.012;40.984;2023-02-19T06:21:57;98844.38;;;-7.40;81.16
59391;BME280;53405;57.012;40.984;2023-02-19T06:24:46;98840.88;;;-7.39;81.56
59391;BME280;53405;57.012;40.984;2023-02-19T06:27:35;98842.72;;;-7.41;81.24
59391;BME280;53405;57.012;40.984;2023-02-19T06:30:22;98838.31;;;-7.39;81.25
59391;BME280;53405;57.012;40.984;2023-02-19T06:33:10;98839.53;;;-7.45;81.29
59391;BME280;53405;57.012;40.984;2023-02-19T06:35:59;98841.72;;;-7.39;81.43
59391;BME280;53405;57.012;40.984;2023-02-19T06:38:48;98833.31;;;-7.27;82.06
59391;BME280;53405;57.012;40.984;2023-02-19T06:41:36;98832.94;;;-7.20;81.46
59391;BME280;53405;57.012;40.984;2023-02-19T06:44:24;98834.00;;;-7.10;80.40
59391;BME280;53405;57.012;40.984;2023-02-19T06:47:11;98834.72;;;-7.08;80.03
59391;BME280;53405;57.012;40.984;2023-02-19T06:49:59;98832.63;;;-7.16;80.68
59391;BME280;53405;57.012;40.984;2023-02-19T06:52:47;98825.47;;;-6.96;80.37
59391;BME280;53405;57.012;40.984;2023-02-19T06:55:34;98832.59;;;-6.87;80.37
59391;BME280;53405;57.012;40.984;2023-02-19T06:58:22;98830.59;;;-6.96;78.61
59391;BME280;53405;57.012;40.984;2023-02-19T07:01:10;98834.16;;;-6.99;80.03
59391;BME280;53405;57.012;40.984;2023-02-19T07:03:58;98820.00;;;-6.90;78.12
59391;BME280;53405;57.012;40.984;2023-02-19T07:06:46;98815.81;;;-7.05;78.51
59391;BME280;53405;57.012;40.984;2023-02-19T07:09:34;98821.19;;;-6.96;78.24
59391;BME280;53405;57.012;40.984;2023-02-19T07:12:21;98816.81;;;-7.08;78.43
59391;BME280;53405;57.012;40.984;2023-02-19T07:15:09;98827.81;;;-7.06;80.10
59391;BME280;53405;57.012;40.984;2023-02-19T07:17:58;98815.25;;;-6.96;79.39
59391;BME280;53405;57.012;40.984;2023-02-19T07:20:46;98810.84;;;-6.94;78.82
59391;BME280;53405;57.012;40.984;2023-02-19T07:23:34;98813.13;;;-6.90;78.59
59391;BME280;53405;57.012;40.984;2023-02-19T07:26:22;98824.44;;;-6.79;77.79
59391;BME280;53405;57.012;40.984;2023-02-19T07:29:10;98827.00;;;-6.79;79.96
59391;BME280;53405;57.012;40.984;2023-02-19T07:31:58;98829.09;;;-6.72;78.54
59391;BME280;53405;57.012;40.984;2023-02-19T07:34:46;98822.31;;;-6.73;78.56
59391;BME280;53405;57.012;40.984;2023-02-19T07:37:33;98827.81;;;-6.79;78.58
59391;BME280;53405;57.012;40.984;2023-02-19T07:40:21;98817.25;;;-6.87;77.71
59391;BME280;53405;57.012;40.984;2023-02-19T07:43:08;98815.06;;;-6.93;78.29
59391;BME280;53405;57.012;40.984;2023-02-19T07:45:56;98803.91;;;-7.06;77.43
59391;BME280;53405;57.012;40.984;2023-02-19T07:48:43;98812.84;;;-7.27;78.03
59391;BME280;53405;57.012;40.984;2023-02-19T07:51:31;98799.94;;;-7.39;78.99
59391;BME280;53405;57.012;40.984;2023-02-19T07:54:19;98803.97;;;-7.35;78.94
59391;BME280;53405;57.012;40.984;2023-02-19T07:57:06;98786.78;;;-7.33;80.00
59391;BME280;53405;57.012;40.984;2023-02-19T07:59:54;98801.84;;;-7.14;79.63
59391;BME280;53405;57.012;40.984;2023-02-19T08:02:42;98796.50;;;-6.97;78.60
59391;BME280;53405;57.012;40.984;2023-02-19T08:05:47;98786.38;;;-7.13;78.10
59391;BME280;53405;57.012;40.984;2023-02-19T08:08:39;98782.75;;;-7.23;78.41
59391;BME280;53405;57.012;40.984;2023-02-19T08:11:26;98797.38;;;-7.11;79.91
59391;BME280;53405;57.012;40.984;2023-02-19T08:14:32;98787.38;;;-7.01;78.77
59391;BME280;53405;57.012;40.984;2023-02-19T08:17:20;98774.63;;;-7.15;77.63
59391;BME280;53405;57.012;40.984;2023-02-19T08:20:08;98787.59;;;-7.18;78.20
59391;BME280;53405;57.012;40.984;2023-02-19T08:22:55;98784.94;;;-7.17;79.21
59391;BME280;53405;57.012;40.984;2023-02-19T08:25:43;98781.63;;;-7.04;78.21
59391;BME280;53405;57.012;40.984;2023-02-19T08:28:31;98779.13;;;-7.19;78.53
59391;BME280;53405;57.012;40.984;2023-02-19T08:31:18;98778.41;;;-7.08;80.01
59391;BME280;53405;57.012;40.984;2023-02-19T08:34:06;98782.53;;;-7.05;77.76
59391;BME280;53405;57.012;40.984;2023-02-19T08:36:53;98779.06;;;-7.04;78.55
59391;BME280;53405;57.012;40.984;2023-02-19T08:39:41;98780.47;;;-7.13;77.54
59391;BME280;53405;57.012;40.984;2023-02-19T08:42:28;98776.09;;;-7.26;77.64
59391;BME280;53405;57.012;40.984;2023-02-19T08:45:17;98780.13;;;-7.21;78.01
59391;BME280;53405;57.012;40.984;2023-02-19T08:48:05;98781.88;;;-7.22;78.52
59391;BME280;53405;57.012;40.984;2023-02-19T08:50:57;98776.56;;;-7.19;79.06
59391;BME280;53405;57.012;40.984;2023-02-19T08:53:45;98778.53;;;-7.10;77.68
59391;BME280;53405;57.012;40.984;2023-02-19T08:56:33;98768.41;;;-7.26;78.47
59391;BME280;53405;57.012;40.984;2023-02-19T08:59:21;98757.19;;;-7.23;78.26
59391;BME280;53405;57.012;40.984;2023-02-19T09:02:08;98774.53;;;-7.14;78.89
59391;BME280;53405;57.012;40.984;2023-02-19T09:04:56;98765.16;;;-7.00;77.69
59391;BME280;53405;57.012;40.984;2023-02-19T09:07:43;98772.59;;;-7.10;76.48
59391;BME280;53405;57.012;40.984;2023-02-19T09:10:31;98754.97;;;-7.15;77.24
59391;BME280;53405;57.012;40.984;2023-02-19T09:13:18;98740.50;;;-7.16;77.40
59391;BME280;53405;57.012;40.984;2023-02-19T09:16:06;98754.56;;;-7.09;76.66
59391;BME280;53405;57.012;40.984;2023-02-19T09:18:53;98761.34;;;-7.07;77.96
59391;BME280;53405;57.012;40.984;2023-02-19T09:21:41;98741.22;;;-7.27;76.94
59391;BME280;53405;57.012;40.984;2023-02-19T09:24:29;98750.13;;;-7.19;76.77
59391;BME280;53405;57.012;40.984;2023-02-19T09:27:18;98748.28;;;-7.17;77.97
59391;BME280;53405;57.012;40.984;2023-02-19T09:30:06;98750.84;;;-7.17;77.19
59391;BME280;53405;57.012;40.984;2023-02-19T09:32:54;98748.41;;;-7.19;76.98
59391;BME280;53405;57.012;40.984;2023-02-19T09:35:41;98755.06;;;-7.16;77.26
59391;BME280;53405;57.012;40.984;2023-02-19T09:38:29;98742.84;;;-6.98;77.81
59391;BME280;53405;57.012;40.984;2023-02-19T09:41:28;98714.19;;;-6.91;77.98
59391;BME280;53405;57.012;40.984;2023-02-19T09:47:25;98728.09;;;-6.55;75.76
59391;BME280;53405;57.012;40.984;2023-02-19T09:50:16;98729.72;;;-6.66;75.24
59391;BME280;53405;57.012;40.984;2023-02-19T09:53:20;98732.06;;;-6.76;75.82
59391;BME280;53405;57.012;40.984;2023-02-19T09:56:09;98732.16;;;-6.78;75.51
59391;BME280;53405;57.012;40.984;2023-02-19T09:58:57;98730.63;;;-6.67;76.96
59391;BME280;53405;57.012;40.984;2023-02-19T10:01:47;98723.94;;;-6.83;75.90
59391;BME280;53405;57.012;40.984;2023-02-19T10:04:40;98724.28;;;-6.75;75.81
59391;BME280;53405;57.012;40.984;2023-02-19T10:07:37;98723.56;;;-6.64;76.09
59391;BME280;53405;57.012;40.984;2023-02-19T10:10:33;98719.47;;;-6.79;75.63
59391;BME280;53405;57.012;40.984;2023-02-19T10:13:23;98723.03;;;-6.82;75.69
59391;BME280;53405;57.012;40.984;2023-02-19T10:16:19;98716.91;;;-6.79;75.91
59391;BME280;53405;57.012;40.984;2023-02-19T10:19:12;98714.34;;;-6.66;75.44
59391;BME280;53405;57.012;40.984;2023-02-19T10:22:02;98711.00;;;-6.54;75.18
59391;BME280;53405;57.012;40.984;2023-02-19T10:24:52;98703.06;;;-6.64;75.11
59391;BME280;53405;57.012;40.984;2023-02-19T10:27:40;98721.41;;;-6.70;74.06
59391;BME280;53405;57.012;40.984;2023-02-19T10:30:30;98715.97;;;-6.65;74.74
59391;BME280;53405;57.012;40.984;2023-02-19T10:33:20;98710.91;;;-6.52;74.54
59391;BME280;53405;57.012;40.984;2023-02-19T10:36:25;98702.88;;;-6.61;74.71
59391;BME280;53405;57.012;40.984;2023-02-19T10:42:19;98691.72;;;-6.73;75.29
59391;BME280;53405;57.012;40.984;2023-02-19T10:45:17;98691.72;;;-6.73;75.38
59391;BME280;53405;57.012;40.984;2023-02-19T10:48:05;98692.31;;;-6.82;75.56
59391;BME280;53405;57.012;40.984;2023-02-19T10:50:54;98691.28;;;-6.79;76.09
59391;BME280;53405;57.012;40.984;2023-02-19T11:00:26;98634.03;;;-7.31;76.02
59391;BME280;53405;57.012;40.984;2023-02-19T11:03:20;98667.75;;;-7.12;76.47
59391;BME280;53405;57.012;40.984;2023-02-19T11:06:08;98675.34;;;-7.10;76.79
59391;BME280;53405;57.012;40.984;2023-02-19T11:08:59;98677.44;;;-6.90;76.91
59391;BME280;53405;57.012;40.984;2023-02-19T11:11:49;98675.72;;;-6.76;77.34
59391;BME280;53405;57.012;40.984;2023-02-19T11:14:41;98679.53;;;-6.56;75.76
59391;BME280;53405;57.012;40.984;2023-02-19T11:17:28;98678.81;;;-6.58;77.22
59391;BME280;53405;57.012;40.984;2023-02-19T11:20:15;98679.84;;;-6.48;75.58
59391;BME280;53405;57.012;40.984;2023-02-19T11:23:13;98673.09;;;-6.36;75.51
59391;BME280;53405;57.012;40.984;2023-02-19T11:26:06;98650.84;;;-6.36;76.02
59391;BME280;53405;57.012;40.984;2023-02-19T11:29:22;98669.72;;;-6.37;74.35
59391;BME280;53405;57.012;40.984;2023-02-19T11:32:29;98668.78;;;-6.36;74.45
59391;BME280;53405;57.012;40.984;2023-02-19T11:35:22;98664.06;;;-6.42;74.50
59391;BME280;53405;57.012;40.984;2023-02-19T11:38:11;98658.41;;;-6.34;74.10
59391;BME280;53405;57.012;40.984;2023-02-19T11:44:46;98659.03;;;-6.18;73.74
59391;BME280;53405;57.012;40.984;2023-02-19T11:54:25;98667.25;;;-5.51;71.94
59391;BME280;53405;57.012;40.984;2023-02-19T11:57:38;98657.38;;;-5.45;71.71
59391;BME280;53405;57.012;40.984;2023-02-19T12:00:30;98649.72;;;-5.33;71.11
59391;BME280;53405;57.012;40.984;2023-02-19T12:15:26;98639.97;;;-5.28;70.10
59391;BME280;53405;57.012;40.984;2023-02-19T12:33:48;98646.94;;;-5.30;70.45
59391;BME280;53405;57.012;40.984;2023-02-19T12:39:54;98649.84;;;-5.35;72.58
59391;BME280;53405;57.012;40.984;2023-02-19T12:43:16;98649.22;;;-5.14;72.02
59391;BME280;53405;57.012;40.984;2023-02-19T12:46:08;98647.09;;;-5.20;70.35
59391;BME280;53405;57.012;40.984;2023-02-19T12:49:38;98647.31;;;-5.23;70.69
59391;BME280;53405;57.012;40.984;2023-02-19T12:52:32;98653.84;;;-5.31;71.12
59391;BME280;53405;57.012;40.984;2023-02-19T12:55:38;98651.09;;;-5.40;70.42
59391;BME280;53405;57.012;40.984;2023-02-19T12:58:43;98624.25;;;-5.48;71.27
59391;BME280;53405;57.012;40.984;2023-02-19T13:01:38;98640.34;;;-5.46;72.70
59391;BME280;53405;57.012;40.984;2023-02-19T13:07:38;98644.66;;;-5.70;71.37
59391;BME280;53405;57.012;40.984;2023-02-19T13:10:42;98637.75;;;-5.70;71.73
59391;BME280;53405;57.012;40.984;2023-02-19T13:13:35;98645.88;;;-5.76;71.22
59391;BME280;53405;57.012;40.984;2023-02-19T13:16:25;98627.72;;;-5.73;73.01
59391;BME280;53405;57.012;40.984;2023-02-19T13:19:22;98633.75;;;-5.61;71.08
59391;BME280;53405;57.012;40.984;2023-02-19T13:22:26;98636.25;;;-5.85;73.04
59391;BME280;53405;57.012;40.984;2023-02-19T13:32:20;98637.53;;;-5.91;72.70
59391;BME280;53405;57.012;40.984;2023-02-19T13:38:09;98627.75;;;-5.86;71.82
59391;BME280;53405;57.012;40.984;2023-02-19T13:40:59;98627.84;;;-5.98;72.20
59391;BME280;53405;57.012;40.984;2023-02-19T13:43:53;98617.59;;;-6.11;72.05
59391;BME280;53405;57.012;40.984;2023-02-19T13:46:44;98633.69;;;-6.09;72.36
59391;BME280;53405;57.012;40.984;2023-02-19T13:58:36;98627.34;;;-6.17;72.94
59391;BME280;53405;57.012;40.984;2023-02-19T14:07:51;98626.63;;;-6.19;72.81
59391;BME280;53405;57.012;40.984;2023-02-19T14:10:54;98636.19;;;-6.21;72.58
59391;BME280;53405;57.012;40.984;2023-02-19T14:19:45;98635.03;;;-6.17;72.52
59391;BME280;53405;57.012;40.984;2023-02-19T14:25:58;98604.59;;;-6.34;73.06
59391;BME280;53405;57.012;40.984;2023-02-19T14:28:48;98609.03;;;-6.36;72.65
59391;BME280;53405;57.012;40.984;2023-02-19T14:31:39;98636.38;;;-6.24;72.92
59391;BME280;53405;57.012;40.984;2023-02-19T14:34:27;98634.53;;;-6.22;73.34
59391;BME280;53405;57.012;40.984;2023-02-19T14:37:18;98627.03;;;-6.12;72.82
59391;BME280;53405;57.012;40.984;2023-02-19T14:40:17;98628.88;;;-6.14;73.49
59391;BME280;53405;57.012;40.984;2023-02-19T14:43:12;98612.41;;;-6.23;72.76
59391;BME280;53405;57.012;40.984;2023-02-19T14:46:13;98619.06;;;-6.33;73.83
59391;BME280;53405;57.012;40.984;2023-02-19T14:49:26;98625.31;;;-6.11;73.15
59391;BME280;53405;57.012;40.984;2023-02-19T14:52:17;98626.41;;;-6.15;72.81
59391;BME280;53405;57.012;40.984;2023-02-19T14:55:12;98604.81;;;-6.24;72.85
59391;BME280;53405;57.012;40.984;2023-02-19T14:58:24;98607.06;;;-6.32;72.51
59391;BME280;53405;57.012;40.984;2023-02-19T15:01:34;98623.06;;;-6.29;73.01
59391;BME280;53405;57.012;40.984;2023-02-19T15:04:24;98628.41;;;-6.32;73.68
59391;BME280;53405;57.012;40.984;2023-02-19T15:07:19;98621.72;;;-6.34;73.39
59391;BME280;53405;57.012;40.984;2023-02-19T15:10:08;98611.69;;;-6.38;73.35
59391;BME280;53405;57.012;40.984;2023-02-19T15:13:01;98622.66;;;-6.36;73.60
59391;BME280;53405;57.012;40.984;2023-02-19T15:15:51;98619.16;;;-6.34;73.39
59391;BME280;53405;57.012;40.984;2023-02-19T15:18:43;98625.22;;;-6.36;73.87
59391;BME280;53405;57.012;40.984;2023-02-19T15:21:37;98612.00;;;-6.42;75.00
59391;BME280;53405;57.012;40.984;2023-02-19T15:24:25;98615.28;;;-6.40;75.07
59391;BME280;53405;57.012;40.984;2023-02-19T15:27:19;98613.34;;;-6.37;75.76
59391;BME280;53405;57.012;40.984;2023-02-19T15:33:18;98599.91;;;-6.66;75.88
59391;BME280;53405;57.012;40.984;2023-02-19T15:36:08;98601.78;;;-6.68;76.22
59391;BME280;53405;57.012;40.984;2023-02-19T15:38:58;98595.72;;;-6.67;76.31
59391;BME280;53405;57.012;40.984;2023-02-19T15:41:53;98575.63;;;-6.86;76.86
59391;BME280;53405;57.012;40.984;2023-02-19T15:45:28;98580.84;;;-6.87;77.40
59391;BME280;53405;57.012;40.984;2023-02-19T15:47:56;98591.63;;;-6.82;77.97
59391;BME280;53405;57.012;40.984;2023-02-19T15:50:49;98593.56;;;-6.86;78.20
59391;BME280;53405;57.012;40.984;2023-02-19T15:53:45;98586.28;;;-6.92;78.40
59391;BME280;53405;57.012;40.984;2023-02-19T15:56:36;98574.13;;;-7.01;78.86
59391;BME280;53405;57.012;40.984;2023-02-19T15:59:32;98567.84;;;-7.10;78.49
59391;BME280;53405;57.012;40.984;2023-02-19T16:02:22;98587.31;;;-6.95;78.92
59391;BME280;53405;57.012;40.984;2023-02-19T16:05:14;98587.44;;;-6.96;78.15
59391;BME280;53405;57.012;40.984;2023-02-19T16:08:06;98583.31;;;-6.99;77.58
59391;BME280;53405;57.012;40.984;2023-02-19T16:10:56;98586.06;;;-7.02;77.34
59391;BME280;53405;57.012;40.984;2023-02-19T16:13:44;98584.66;;;-7.06;77.72
59391;BME280;53405;57.012;40.984;2023-02-19T16:16:35;98589.03;;;-7.08;77.59
59391;BME280;53405;57.012;40.984;2023-02-19T16:19:27;98580.84;;;-7.00;77.81
59391;BME280;53405;57.012;40.984;2023-02-19T16:22:18;98585.69;;;-6.96;77.38
59391;BME280;53405;57.012;40.984;2023-02-19T16:25:06;98577.38;;;-6.86;77.13
59391;BME280;53405;57.012;40.984;2023-02-19T16:28:22;98564.59;;;-6.99;76.34
59391;BME280;53405;57.012;40.984;2023-02-19T16:31:11;98589.19;;;-6.97;76.83
59391;BME280;53405;57.012;40.984;2023-02-19T16:34:15;98581.69;;;-7.00;77.41
59391;BME280;53405;57.012;40.984;2023-02-19T16:46:01;98560.16;;;-7.23;79.11
59391;BME280;53405;57.012;40.984;2023-02-19T16:48:49;98584.41;;;-7.16;79.51
59391;BME280;53405;57.012;40.984;2023-02-19T16:51:37;98584.50;;;-7.17;79.63
59391;BME280;53405;57.012;40.984;2023-02-19T16:54:25;98559.34;;;-7.23;79.66
59391;BME280;53405;57.012;40.984;2023-02-19T16:57:12;98585.16;;;-7.14;79.17
59391;BME280;53405;57.012;40.984;2023-02-19T17:00:00;98587.41;;;-7.09;79.52